sensor_id;sensor_type;location;lat;lon;timestamp;temperature;humidity
53146;DHT22;39042;53.150;5.898;2022-07-06T00:01:07;14.30;99.90
53146;DHT22;39042;53.150;5.898;2022-07-06T00:03:33;14.20;99.90
53146;DHT22;39042;53.150;5.898;2022-07-06T00:05:58;14.20;99.90
53146;DHT22;39042;53.150;5.898;2022-07-06T00:08:24;14.20;99.90
53146;DHT22;39042;53.150;5.898;2022-07-06T00:10:50;14.20;99.90
53146;DHT22;39042;53.150;5.898;2022-07-06T00:13:16;14.20;99.90
53146;DHT22;39042;53.150;5.898;2022-07-06T00:15:42;14.20;99.90
53146;DHT22;39042;53.150;5.898;2022-07-06T00:18:07;14.20;99.90
53146;DHT22;39042;53.150;5.898;2022-07-06T00:20:33;14.20;99.90
53146;DHT22;39042;53.150;5.898;2022-07-06T00:22:59;14.20;99.90
53146;DHT22;39042;53.150;5.898;2022-07-06T00:25:25;14.30;99.90
53146;DHT22;39042;53.150;5.898;2022-07-06T00:27:50;14.30;99.90
53146;DHT22;39042;53.150;5.898;2022-07-06T00:30:16;14.30;99.90
53146;DHT22;39042;53.150;5.898;2022-07-06T00:32:42;14.30;99.90
53146;DHT22;39042;53.150;5.898;2022-07-06T00:35:08;14.30;99.90
53146;DHT22;39042;53.150;5.898;2022-07-06T00:37:33;14.30;99.90
53146;DHT22;39042;53.150;5.898;2022-07-06T00:39:59;14.30;99.90
53146;DHT22;39042;53.150;5.898;2022-07-06T00:42:25;14.40;99.90
53146;DHT22;39042;53.150;5.898;2022-07-06T00:44:51;14.30;99.90
53146;DHT22;39042;53.150;5.898;2022-07-06T00:47:16;14.30;99.90
53146;DHT22;39042;53.150;5.898;2022-07-06T00:49:42;14.40;99.90
53146;DHT22;39042;53.150;5.898;2022-07-06T00:52:26;14.30;99.90
53146;DHT22;39042;53.150;5.898;2022-07-06T00:54:53;14.30;99.90
53146;DHT22;39042;53.150;5.898;2022-07-06T00:57:19;14.40;99.90
53146;DHT22;39042;53.150;5.898;2022-07-06T00:59:45;14.30;99.90
53146;DHT22;39042;53.150;5.898;2022-07-06T01:02:11;14.40;99.90
53146;DHT22;39042;53.150;5.898;2022-07-06T01:04:37;14.40;99.90
53146;DHT22;39042;53.150;5.898;2022-07-06T01:07:03;14.40;99.90
53146;DHT22;39042;53.150;5.898;2022-07-06T01:09:29;14.40;99.90
53146;DHT22;39042;53.150;5.898;2022-07-06T01:11:55;14.40;99.90
53146;DHT22;39042;53.150;5.898;2022-07-06T01:14:22;14.40;99.90
53146;DHT22;39042;53.150;5.898;2022-07-06T01:16:48;14.40;99.90
53146;DHT22;39042;53.150;5.898;2022-07-06T01:19:14;14.40;99.90
53146;DHT22;39042;53.150;5.898;2022-07-06T01:21:40;14.40;99.90
53146;DHT22;39042;53.150;5.898;2022-07-06T01:24:06;14.40;99.90
53146;DHT22;39042;53.150;5.898;2022-07-06T01:26:32;14.40;99.90
53146;DHT22;39042;53.150;5.898;2022-07-06T01:28:58;14.40;99.90
53146;DHT22;39042;53.150;5.898;2022-07-06T01:31:25;14.40;99.90
53146;DHT22;39042;53.150;5.898;2022-07-06T01:33:53;14.40;99.90
53146;DHT22;39042;53.150;5.898;2022-07-06T01:36:20;14.30;99.90
53146;DHT22;39042;53.150;5.898;2022-07-06T01:38:53;14.40;99.90
53146;DHT22;39042;53.150;5.898;2022-07-06T01:41:20;14.40;99.90
53146;DHT22;39042;53.150;5.898;2022-07-06T01:43:46;14.40;99.90
53146;DHT22;39042;53.150;5.898;2022-07-06T01:46:13;14.40;99.90
53146;DHT22;39042;53.150;5.898;2022-07-06T01:48:39;14.40;99.90
53146;DHT22;39042;53.150;5.898;2022-07-06T01:51:05;14.40;99.90
53146;DHT22;39042;53.150;5.898;2022-07-06T01:53:32;14.40;99.90
53146;DHT22;39042;53.150;5.898;2022-07-06T01:55:59;14.40;99.90
53146;DHT22;39042;53.150;5.898;2022-07-06T01:58:26;14.40;99.90
53146;DHT22;39042;53.150;5.898;2022-07-06T02:00:52;14.40;99.90
53146;DHT22;39042;53.150;5.898;2022-07-06T02:03:18;14.40;99.90
53146;DHT22;39042;53.150;5.898;2022-07-06T02:05:44;14.40;99.90
53146;DHT22;39042;53.150;5.898;2022-07-06T02:08:10;14.30;99.90
53146;DHT22;39042;53.150;5.898;2022-07-06T02:10:35;14.40;99.90
53146;DHT22;39042;53.150;5.898;2022-07-06T02:13:01;14.30;99.90
53146;DHT22;39042;53.150;5.898;2022-07-06T02:15:27;14.30;99.90
53146;DHT22;39042;53.150;5.898;2022-07-06T02:17:53;14.30;99.90
53146;DHT22;39042;53.150;5.898;2022-07-06T02:20:22;14.30;99.90
53146;DHT22;39042;53.150;5.898;2022-07-06T02:22:47;14.30;99.90
53146;DHT22;39042;53.150;5.898;2022-07-06T02:25:13;14.20;99.90
53146;DHT22;39042;53.150;5.898;2022-07-06T02:27:39;14.30;99.90
53146;DHT22;39042;53.150;5.898;2022-07-06T02:30:08;14.20;99.90
53146;DHT22;39042;53.150;5.898;2022-07-06T02:32:35;14.20;99.90
53146;DHT22;39042;53.150;5.898;2022-07-06T02:35:02;14.20;99.90
53146;DHT22;39042;53.150;5.898;2022-07-06T02:37:29;14.20;99.90
53146;DHT22;39042;53.150;5.898;2022-07-06T02:39:55;14.10;99.90
53146;DHT22;39042;53.150;5.898;2022-07-06T02:42:20;14.10;99.90
53146;DHT22;39042;53.150;5.898;2022-07-06T02:44:46;14.10;99.90
53146;DHT22;39042;53.150;5.898;2022-07-06T02:47:12;14.00;99.90
53146;DHT22;39042;53.150;5.898;2022-07-06T02:49:39;14.00;99.90
53146;DHT22;39042;53.150;5.898;2022-07-06T02:52:05;14.00;99.90
53146;DHT22;39042;53.150;5.898;2022-07-06T02:54:31;13.90;99.90
53146;DHT22;39042;53.150;5.898;2022-07-06T02:56:57;13.80;99.90
53146;DHT22;39042;53.150;5.898;2022-07-06T02:59:24;13.80;99.90
53146;DHT22;39042;53.150;5.898;2022-07-06T03:01:50;13.70;99.90
53146;DHT22;39042;53.150;5.898;2022-07-06T03:04:16;13.60;99.90
53146;DHT22;39042;53.150;5.898;2022-07-06T03:06:44;13.50;99.90
53146;DHT22;39042;53.150;5.898;2022-07-06T03:09:10;13.40;99.90
53146;DHT22;39042;53.150;5.898;2022-07-06T03:11:37;13.30;99.90
53146;DHT22;39042;53.150;5.898;2022-07-06T03:14:04;13.20;99.90
53146;DHT22;39042;53.150;5.898;2022-07-06T03:16:32;13.10;99.90
53146;DHT22;39042;53.150;5.898;2022-07-06T03:18:58;13.00;99.90
53146;DHT22;39042;53.150;5.898;2022-07-06T03:21:24;12.90;99.90
53146;DHT22;39042;53.150;5.898;2022-07-06T03:23:51;12.80;99.90
53146;DHT22;39042;53.150;5.898;2022-07-06T03:26:16;12.80;99.90
53146;DHT22;39042;53.150;5.898;2022-07-06T03:28:43;12.70;99.90
53146;DHT22;39042;53.150;5.898;2022-07-06T03:31:09;12.70;99.90
53146;DHT22;39042;53.150;5.898;2022-07-06T03:33:35;12.60;99.90
53146;DHT22;39042;53.150;5.898;2022-07-06T03:36:02;12.60;99.90
53146;DHT22;39042;53.150;5.898;2022-07-06T03:38:28;12.60;99.90
53146;DHT22;39042;53.150;5.898;2022-07-06T03:40:54;12.60;99.90
53146;DHT22;39042;53.150;5.898;2022-07-06T03:43:20;12.60;99.90
53146;DHT22;39042;53.150;5.898;2022-07-06T03:45:46;12.60;99.90
53146;DHT22;39042;53.150;5.898;2022-07-06T03:48:12;12.60;99.90
53146;DHT22;39042;53.150;5.898;2022-07-06T03:50:40;12.60;99.90
53146;DHT22;39042;53.150;5.898;2022-07-06T03:53:06;12.60;99.90
53146;DHT22;39042;53.150;5.898;2022-07-06T03:55:32;12.60;99.90
53146;DHT22;39042;53.150;5.898;2022-07-06T03:58:02;12.60;99.90
53146;DHT22;39042;53.150;5.898;2022-07-06T04:00:28;12.60;99.90
53146;DHT22;39042;53.150;5.898;2022-07-06T04:03:00;12.60;99.90
53146;DHT22;39042;53.150;5.898;2022-07-06T04:05:30;12.60;99.90
53146;DHT22;39042;53.150;5.898;2022-07-06T04:07:56;12.60;99.90
53146;DHT22;39042;53.150;5.898;2022-07-06T04:10:29;12.60;99.90
53146;DHT22;39042;53.150;5.898;2022-07-06T04:12:57;12.60;99.90
53146;DHT22;39042;53.150;5.898;2022-07-06T04:15:23;12.60;99.90
53146;DHT22;39042;53.150;5.898;2022-07-06T04:17:49;12.60;99.90
53146;DHT22;39042;53.150;5.898;2022-07-06T04:20:19;12.60;99.90
53146;DHT22;39042;53.150;5.898;2022-07-06T04:22:45;12.60;99.90
53146;DHT22;39042;53.150;5.898;2022-07-06T04:25:12;12.60;99.90
53146;DHT22;39042;53.150;5.898;2022-07-06T04:27:39;12.60;99.90
53146;DHT22;39042;53.150;5.898;2022-07-06T04:30:07;12.60;99.90
53146;DHT22;39042;53.150;5.898;2022-07-06T04:32:33;12.60;99.90
53146;DHT22;39042;53.150;5.898;2022-07-06T04:34:59;12.60;99.90
53146;DHT22;39042;53.150;5.898;2022-07-06T04:37:25;12.70;99.90
53146;DHT22;39042;53.150;5.898;2022-07-06T04:39:51;12.70;99.90
53146;DHT22;39042;53.150;5.898;2022-07-06T04:42:18;12.80;99.90
53146;DHT22;39042;53.150;5.898;2022-07-06T04:44:44;12.80;99.90
53146;DHT22;39042;53.150;5.898;2022-07-06T04:47:13;12.80;99.90
53146;DHT22;39042;53.150;5.898;2022-07-06T04:49:40;12.90;99.90
53146;DHT22;39042;53.150;5.898;2022-07-06T04:52:06;12.90;99.90
53146;DHT22;39042;53.150;5.898;2022-07-06T04:54:33;13.00;99.90
53146;DHT22;39042;53.150;5.898;2022-07-06T04:56:59;13.00;99.90
53146;DHT22;39042;53.150;5.898;2022-07-06T04:59:25;13.10;99.90
53146;DHT22;39042;53.150;5.898;2022-07-06T05:01:51;13.10;99.90
53146;DHT22;39042;53.150;5.898;2022-07-06T05:04:17;13.10;99.90
53146;DHT22;39042;53.150;5.898;2022-07-06T05:06:46;13.20;99.90
53146;DHT22;39042;53.150;5.898;2022-07-06T05:09:13;13.20;99.90
53146;DHT22;39042;53.150;5.898;2022-07-06T05:11:40;13.30;99.90
53146;DHT22;39042;53.150;5.898;2022-07-06T05:14:06;13.50;99.90
53146;DHT22;39042;53.150;5.898;2022-07-06T05:16:32;13.60;99.90
53146;DHT22;39042;53.150;5.898;2022-07-06T05:18:58;13.80;99.90
53146;DHT22;39042;53.150;5.898;2022-07-06T05:21:25;14.00;99.90
53146;DHT22;39042;53.150;5.898;2022-07-06T05:23:51;14.10;99.90
53146;DHT22;39042;53.150;5.898;2022-07-06T05:26:17;14.30;99.90
53146;DHT22;39042;53.150;5.898;2022-07-06T05:28:44;14.50;99.90
53146;DHT22;39042;53.150;5.898;2022-07-06T05:31:14;14.50;99.90
53146;DHT22;39042;53.150;5.898;2022-07-06T05:33:40;14.60;99.90
53146;DHT22;39042;53.150;5.898;2022-07-06T05:36:06;14.60;99.90
53146;DHT22;39042;53.150;5.898;2022-07-06T05:38:31;14.70;99.90
53146;DHT22;39042;53.150;5.898;2022-07-06T05:40:58;14.80;99.90
53146;DHT22;39042;53.150;5.898;2022-07-06T05:43:24;14.80;99.90
53146;DHT22;39042;53.150;5.898;2022-07-06T05:45:51;14.90;99.90
53146;DHT22;39042;53.150;5.898;2022-07-06T05:48:19;14.90;99.90
53146;DHT22;39042;53.150;5.898;2022-07-06T05:51:05;15.00;99.90
53146;DHT22;39042;53.150;5.898;2022-07-06T05:53:32;15.00;99.90
53146;DHT22;39042;53.150;5.898;2022-07-06T05:55:58;15.10;99.90
53146;DHT22;39042;53.150;5.898;2022-07-06T05:58:25;15.20;99.90
53146;DHT22;39042;53.150;5.898;2022-07-06T06:00:51;15.30;99.90
53146;DHT22;39042;53.150;5.898;2022-07-06T06:03:19;15.30;99.90
53146;DHT22;39042;53.150;5.898;2022-07-06T06:05:47;15.40;99.90
53146;DHT22;39042;53.150;5.898;2022-07-06T06:08:15;15.40;99.90
53146;DHT22;39042;53.150;5.898;2022-07-06T06:10:41;15.40;99.90
53146;DHT22;39042;53.150;5.898;2022-07-06T06:13:10;15.40;99.90
53146;DHT22;39042;53.150;5.898;2022-07-06T06:15:37;15.40;99.90
53146;DHT22;39042;53.150;5.898;2022-07-06T06:18:04;15.40;99.90
53146;DHT22;39042;53.150;5.898;2022-07-06T06:20:30;15.50;99.90
53146;DHT22;39042;53.150;5.898;2022-07-06T06:22:57;15.70;99.90
53146;DHT22;39042;53.150;5.898;2022-07-06T06:25:34;15.80;99.90
53146;DHT22;39042;53.150;5.898;2022-07-06T06:28:01;16.00;99.90
53146;DHT22;39042;53.150;5.898;2022-07-06T06:30:27;16.10;99.90
53146;DHT22;39042;53.150;5.898;2022-07-06T06:33:13;16.20;99.90
53146;DHT22;39042;53.150;5.898;2022-07-06T06:35:49;16.40;99.90
53146;DHT22;39042;53.150;5.898;2022-07-06T06:38:17;16.50;99.90
53146;DHT22;39042;53.150;5.898;2022-07-06T06:40:43;16.50;99.90
53146;DHT22;39042;53.150;5.898;2022-07-06T06:43:09;16.50;99.90
53146;DHT22;39042;53.150;5.898;2022-07-06T06:45:42;16.60;99.90
53146;DHT22;39042;53.150;5.898;2022-07-06T06:48:08;16.60;99.90
53146;DHT22;39042;53.150;5.898;2022-07-06T06:50:33;16.50;99.90
53146;DHT22;39042;53.150;5.898;2022-07-06T06:52:59;16.60;99.90
53146;DHT22;39042;53.150;5.898;2022-07-06T06:55:25;16.60;99.90
53146;DHT22;39042;53.150;5.898;2022-07-06T06:57:51;16.60;99.90
53146;DHT22;39042;53.150;5.898;2022-07-06T07:00:17;16.70;99.90
53146;DHT22;39042;53.150;5.898;2022-07-06T07:02:43;16.70;99.90
53146;DHT22;39042;53.150;5.898;2022-07-06T07:05:09;16.80;99.90
53146;DHT22;39042;53.150;5.898;2022-07-06T07:07:35;16.90;99.90
53146;DHT22;39042;53.150;5.898;2022-07-06T07:10:03;17.00;99.90
53146;DHT22;39042;53.150;5.898;2022-07-06T07:12:29;17.10;99.90
53146;DHT22;39042;53.150;5.898;2022-07-06T07:14:55;17.10;99.90
53146;DHT22;39042;53.150;5.898;2022-07-06T07:17:20;17.10;99.90
53146;DHT22;39042;53.150;5.898;2022-07-06T07:19:46;17.20;99.90
53146;DHT22;39042;53.150;5.898;2022-07-06T07:22:12;17.30;99.90
53146;DHT22;39042;53.150;5.898;2022-07-06T07:24:38;17.30;99.90
53146;DHT22;39042;53.150;5.898;2022-07-06T07:27:03;17.50;99.90
53146;DHT22;39042;53.150;5.898;2022-07-06T07:29:30;17.50;99.90
53146;DHT22;39042;53.150;5.898;2022-07-06T07:31:56;17.50;99.90
53146;DHT22;39042;53.150;5.898;2022-07-06T07:34:22;17.50;99.90
53146;DHT22;39042;53.150;5.898;2022-07-06T07:36:47;17.60;99.90
53146;DHT22;39042;53.150;5.898;2022-07-06T07:39:13;17.70;99.90
53146;DHT22;39042;53.150;5.898;2022-07-06T07:41:39;17.70;99.90
53146;DHT22;39042;53.150;5.898;2022-07-06T07:44:05;17.80;99.90
53146;DHT22;39042;53.150;5.898;2022-07-06T07:46:31;17.80;99.90
53146;DHT22;39042;53.150;5.898;2022-07-06T07:48:56;17.80;99.90
53146;DHT22;39042;53.150;5.898;2022-07-06T07:51:23;17.60;99.90
53146;DHT22;39042;53.150;5.898;2022-07-06T07:53:49;17.40;99.90
53146;DHT22;39042;53.150;5.898;2022-07-06T07:56:14;17.40;99.90
53146;DHT22;39042;53.150;5.898;2022-07-06T07:58:40;17.30;99.90
53146;DHT22;39042;53.150;5.898;2022-07-06T08:01:06;17.30;99.90
53146;DHT22;39042;53.150;5.898;2022-07-06T08:03:32;17.40;99.90
53146;DHT22;39042;53.150;5.898;2022-07-06T08:05:58;17.60;99.90
53146;DHT22;39042;53.150;5.898;2022-07-06T08:08:24;17.80;99.90
53146;DHT22;39042;53.150;5.898;2022-07-06T08:10:50;18.00;99.90
53146;DHT22;39042;53.150;5.898;2022-07-06T08:13:15;18.20;99.90
53146;DHT22;39042;53.150;5.898;2022-07-06T08:15:41;18.10;99.90
53146;DHT22;39042;53.150;5.898;2022-07-06T08:18:08;18.10;99.90
53146;DHT22;39042;53.150;5.898;2022-07-06T08:20:35;18.00;99.90
53146;DHT22;39042;53.150;5.898;2022-07-06T08:23:01;18.00;99.90
53146;DHT22;39042;53.150;5.898;2022-07-06T08:25:26;18.10;99.90
53146;DHT22;39042;53.150;5.898;2022-07-06T08:27:52;18.20;99.90
53146;DHT22;39042;53.150;5.898;2022-07-06T08:30:18;18.30;99.90
53146;DHT22;39042;53.150;5.898;2022-07-06T08:32:44;18.40;99.90
53146;DHT22;39042;53.150;5.898;2022-07-06T08:35:10;18.40;99.90
53146;DHT22;39042;53.150;5.898;2022-07-06T08:37:36;18.50;99.90
53146;DHT22;39042;53.150;5.898;2022-07-06T08:40:03;18.60;99.90
53146;DHT22;39042;53.150;5.898;2022-07-06T08:42:33;18.60;99.90
53146;DHT22;39042;53.150;5.898;2022-07-06T08:45:01;18.60;99.90
53146;DHT22;39042;53.150;5.898;2022-07-06T08:47:28;18.60;99.90
53146;DHT22;39042;53.150;5.898;2022-07-06T08:49:56;18.50;99.90
53146;DHT22;39042;53.150;5.898;2022-07-06T08:52:23;18.40;99.90
53146;DHT22;39042;53.150;5.898;2022-07-06T08:54:49;18.40;99.90
53146;DHT22;39042;53.150;5.898;2022-07-06T08:57:15;18.50;99.90
53146;DHT22;39042;53.150;5.898;2022-07-06T08:59:42;18.70;99.90
53146;DHT22;39042;53.150;5.898;2022-07-06T09:02:10;18.90;99.90
53146;DHT22;39042;53.150;5.898;2022-07-06T09:04:36;19.00;99.90
53146;DHT22;39042;53.150;5.898;2022-07-06T09:07:03;19.00;99.90
53146;DHT22;39042;53.150;5.898;2022-07-06T09:09:30;19.00;99.90
53146;DHT22;39042;53.150;5.898;2022-07-06T09:11:56;19.00;99.90
53146;DHT22;39042;53.150;5.898;2022-07-06T09:14:22;19.20;99.90
53146;DHT22;39042;53.150;5.898;2022-07-06T09:17:00;19.30;99.90
53146;DHT22;39042;53.150;5.898;2022-07-06T09:19:28;19.40;99.90
53146;DHT22;39042;53.150;5.898;2022-07-06T09:21:54;19.30;99.90
53146;DHT22;39042;53.150;5.898;2022-07-06T09:24:20;19.30;99.90
53146;DHT22;39042;53.150;5.898;2022-07-06T09:26:47;19.30;99.90
53146;DHT22;39042;53.150;5.898;2022-07-06T09:29:13;19.30;99.90
53146;DHT22;39042;53.150;5.898;2022-07-06T09:31:40;19.50;99.90
53146;DHT22;39042;53.150;5.898;2022-07-06T09:34:07;19.60;99.90
53146;DHT22;39042;53.150;5.898;2022-07-06T09:39:26;19.90;99.90
53146;DHT22;39042;53.150;5.898;2022-07-06T09:41:55;20.10;99.90
53146;DHT22;39042;53.150;5.898;2022-07-06T09:44:33;20.00;99.90
53146;DHT22;39042;53.150;5.898;2022-07-06T09:47:05;20.10;99.90
53146;DHT22;39042;53.150;5.898;2022-07-06T09:49:31;20.20;99.90
53146;DHT22;39042;53.150;5.898;2022-07-06T09:52:02;20.20;99.90
53146;DHT22;39042;53.150;5.898;2022-07-06T09:54:28;20.20;99.90
53146;DHT22;39042;53.150;5.898;2022-07-06T09:56:56;20.20;99.90
53146;DHT22;39042;53.150;5.898;2022-07-06T09:59:24;20.40;99.90
53146;DHT22;39042;53.150;5.898;2022-07-06T10:01:52;20.30;99.90
53146;DHT22;39042;53.150;5.898;2022-07-06T10:04:20;20.30;99.90
53146;DHT22;39042;53.150;5.898;2022-07-06T10:06:47;20.30;99.90
53146;DHT22;39042;53.150;5.898;2022-07-06T10:09:14;20.20;99.90
53146;DHT22;39042;53.150;5.898;2022-07-06T10:11:48;20.20;99.90
53146;DHT22;39042;53.150;5.898;2022-07-06T10:14:23;20.20;99.90
53146;DHT22;39042;53.150;5.898;2022-07-06T10:16:50;20.10;99.90
53146;DHT22;39042;53.150;5.898;2022-07-06T10:19:17;20.00;99.90
53146;DHT22;39042;53.150;5.898;2022-07-06T10:21:44;20.00;99.90
53146;DHT22;39042;53.150;5.898;2022-07-06T10:24:10;19.90;99.90
53146;DHT22;39042;53.150;5.898;2022-07-06T10:26:38;20.00;99.90
53146;DHT22;39042;53.150;5.898;2022-07-06T10:29:06;19.90;99.90
53146;DHT22;39042;53.150;5.898;2022-07-06T10:31:34;19.90;99.90
53146;DHT22;39042;53.150;5.898;2022-07-06T10:34:02;19.90;99.90
53146;DHT22;39042;53.150;5.898;2022-07-06T10:36:29;20.00;99.90
53146;DHT22;39042;53.150;5.898;2022-07-06T10:38:55;20.10;99.90
53146;DHT22;39042;53.150;5.898;2022-07-06T10:41:31;20.10;99.90
53146;DHT22;39042;53.150;5.898;2022-07-06T10:43:57;20.10;99.90
53146;DHT22;39042;53.150;5.898;2022-07-06T10:46:28;20.10;99.90
53146;DHT22;39042;53.150;5.898;2022-07-06T10:48:54;20.20;99.90
53146;DHT22;39042;53.150;5.898;2022-07-06T10:51:28;20.20;99.90
53146;DHT22;39042;53.150;5.898;2022-07-06T10:53:59;20.30;99.90
53146;DHT22;39042;53.150;5.898;2022-07-06T10:59:08;20.30;99.90
53146;DHT22;39042;53.150;5.898;2022-07-06T11:01:35;20.30;99.90
53146;DHT22;39042;53.150;5.898;2022-07-06T11:06:31;20.40;99.90
53146;DHT22;39042;53.150;5.898;2022-07-06T11:09:01;20.40;99.90
53146;DHT22;39042;53.150;5.898;2022-07-06T11:14:05;20.60;99.90
53146;DHT22;39042;53.150;5.898;2022-07-06T11:16:40;20.70;99.90
53146;DHT22;39042;53.150;5.898;2022-07-06T11:19:26;20.70;99.90
53146;DHT22;39042;53.150;5.898;2022-07-06T11:21:53;20.80;99.90
53146;DHT22;39042;53.150;5.898;2022-07-06T11:24:33;20.80;99.90
53146;DHT22;39042;53.150;5.898;2022-07-06T11:26:59;20.90;99.90
53146;DHT22;39042;53.150;5.898;2022-07-06T11:29:28;20.80;99.90
53146;DHT22;39042;53.150;5.898;2022-07-06T11:31:55;20.80;99.90
53146;DHT22;39042;53.150;5.898;2022-07-06T11:37:06;21.20;99.90
53146;DHT22;39042;53.150;5.898;2022-07-06T11:39:38;21.20;99.50
53146;DHT22;39042;53.150;5.898;2022-07-06T11:42:08;21.30;99.40
53146;DHT22;39042;53.150;5.898;2022-07-06T11:44:35;21.30;99.40
53146;DHT22;39042;53.150;5.898;2022-07-06T11:47:02;21.50;99.90
53146;DHT22;39042;53.150;5.898;2022-07-06T11:49:30;21.70;99.50
53146;DHT22;39042;53.150;5.898;2022-07-06T11:51:56;21.80;98.90
53146;DHT22;39042;53.150;5.898;2022-07-06T11:54:23;21.80;99.10
53146;DHT22;39042;53.150;5.898;2022-07-06T11:56:58;22.00;99.00
53146;DHT22;39042;53.150;5.898;2022-07-06T12:02:15;22.20;97.50
53146;DHT22;39042;53.150;5.898;2022-07-06T12:04:43;22.20;97.40
53146;DHT22;39042;53.150;5.898;2022-07-06T12:07:11;22.10;97.30
53146;DHT22;39042;53.150;5.898;2022-07-06T12:09:38;22.20;96.90
53146;DHT22;39042;53.150;5.898;2022-07-06T12:12:06;22.30;97.00
53146;DHT22;39042;53.150;5.898;2022-07-06T12:14:35;22.40;96.70
53146;DHT22;39042;53.150;5.898;2022-07-06T12:17:09;22.50;96.50
53146;DHT22;39042;53.150;5.898;2022-07-06T12:19:36;22.50;95.40
53146;DHT22;39042;53.150;5.898;2022-07-06T12:22:02;22.50;95.70
53146;DHT22;39042;53.150;5.898;2022-07-06T12:24:29;22.50;95.80
53146;DHT22;39042;53.150;5.898;2022-07-06T12:27:18;22.60;95.50
53146;DHT22;39042;53.150;5.898;2022-07-06T12:29:45;22.40;94.60
53146;DHT22;39042;53.150;5.898;2022-07-06T12:32:16;22.30;95.50
53146;DHT22;39042;53.150;5.898;2022-07-06T12:34:43;22.30;95.30
53146;DHT22;39042;53.150;5.898;2022-07-06T12:37:10;22.10;95.00
53146;DHT22;39042;53.150;5.898;2022-07-06T12:43:45;22.00;95.70
53146;DHT22;39042;53.150;5.898;2022-07-06T12:46:30;22.10;95.30
53146;DHT22;39042;53.150;5.898;2022-07-06T12:48:58;22.30;94.90
53146;DHT22;39042;53.150;5.898;2022-07-06T12:51:24;22.30;95.20
53146;DHT22;39042;53.150;5.898;2022-07-06T12:53:50;22.50;94.80
53146;DHT22;39042;53.150;5.898;2022-07-06T12:56:17;22.70;94.90
53146;DHT22;39042;53.150;5.898;2022-07-06T12:58:59;22.90;94.30
53146;DHT22;39042;53.150;5.898;2022-07-06T13:01:26;23.20;93.80
53146;DHT22;39042;53.150;5.898;2022-07-06T13:03:57;23.00;93.60
53146;DHT22;39042;53.150;5.898;2022-07-06T13:06:33;23.00;93.90
53146;DHT22;39042;53.150;5.898;2022-07-06T13:08:59;22.90;94.60
53146;DHT22;39042;53.150;5.898;2022-07-06T13:11:25;22.90;95.00
53146;DHT22;39042;53.150;5.898;2022-07-06T13:13:51;22.80;95.00
53146;DHT22;39042;53.150;5.898;2022-07-06T13:16:18;22.60;95.30
53146;DHT22;39042;53.150;5.898;2022-07-06T13:18:44;22.60;95.50
53146;DHT22;39042;53.150;5.898;2022-07-06T13:21:09;22.30;95.10
53146;DHT22;39042;53.150;5.898;2022-07-06T13:23:36;22.20;96.10
53146;DHT22;39042;53.150;5.898;2022-07-06T13:26:02;22.00;95.90
53146;DHT22;39042;53.150;5.898;2022-07-06T13:28:28;22.00;96.10
53146;DHT22;39042;53.150;5.898;2022-07-06T13:30:54;21.80;96.40
53146;DHT22;39042;53.150;5.898;2022-07-06T13:33:19;21.60;96.80
53146;DHT22;39042;53.150;5.898;2022-07-06T13:35:45;21.50;96.80
53146;DHT22;39042;53.150;5.898;2022-07-06T13:38:11;21.30;97.00
53146;DHT22;39042;53.150;5.898;2022-07-06T13:40:37;21.20;97.80
53146;DHT22;39042;53.150;5.898;2022-07-06T13:43:03;21.20;98.20
53146;DHT22;39042;53.150;5.898;2022-07-06T13:45:29;21.10;99.10
53146;DHT22;39042;53.150;5.898;2022-07-06T13:47:55;21.10;99.30
53146;DHT22;39042;53.150;5.898;2022-07-06T13:50:20;21.00;98.90
53146;DHT22;39042;53.150;5.898;2022-07-06T13:52:46;20.80;98.10
53146;DHT22;39042;53.150;5.898;2022-07-06T13:55:12;20.60;98.40
53146;DHT22;39042;53.150;5.898;2022-07-06T13:57:38;20.30;99.70
53146;DHT22;39042;53.150;5.898;2022-07-06T14:00:07;20.10;99.90
53146;DHT22;39042;53.150;5.898;2022-07-06T14:02:34;19.70;99.90
53146;DHT22;39042;53.150;5.898;2022-07-06T14:05:00;19.40;99.90
53146;DHT22;39042;53.150;5.898;2022-07-06T14:07:26;19.30;99.90
53146;DHT22;39042;53.150;5.898;2022-07-06T14:09:52;19.30;99.90
53146;DHT22;39042;53.150;5.898;2022-07-06T14:12:18;19.30;99.90
53146;DHT22;39042;53.150;5.898;2022-07-06T14:14:44;19.30;99.90
53146;DHT22;39042;53.150;5.898;2022-07-06T14:17:10;19.40;99.90
53146;DHT22;39042;53.150;5.898;2022-07-06T14:19:38;19.50;99.90
53146;DHT22;39042;53.150;5.898;2022-07-06T14:22:04;19.50;99.90
53146;DHT22;39042;53.150;5.898;2022-07-06T14:24:29;19.60;99.90
53146;DHT22;39042;53.150;5.898;2022-07-06T14:26:55;19.60;99.90
53146;DHT22;39042;53.150;5.898;2022-07-06T14:29:21;19.40;99.90
53146;DHT22;39042;53.150;5.898;2022-07-06T14:31:47;19.10;99.90
53146;DHT22;39042;53.150;5.898;2022-07-06T14:34:13;18.90;99.90
53146;DHT22;39042;53.150;5.898;2022-07-06T14:36:39;18.90;99.90
53146;DHT22;39042;53.150;5.898;2022-07-06T14:39:05;18.90;99.90
53146;DHT22;39042;53.150;5.898;2022-07-06T14:41:30;18.80;99.90
53146;DHT22;39042;53.150;5.898;2022-07-06T14:43:56;18.70;99.90
53146;DHT22;39042;53.150;5.898;2022-07-06T14:46:22;18.70;99.90
53146;DHT22;39042;53.150;5.898;2022-07-06T14:48:48;18.60;99.90
53146;DHT22;39042;53.150;5.898;2022-07-06T14:51:14;18.40;99.90
53146;DHT22;39042;53.150;5.898;2022-07-06T14:53:40;18.20;99.90
53146;DHT22;39042;53.150;5.898;2022-07-06T14:56:05;18.00;99.90
53146;DHT22;39042;53.150;5.898;2022-07-06T14:58:31;17.90;99.90
53146;DHT22;39042;53.150;5.898;2022-07-06T15:00:57;17.80;99.90
53146;DHT22;39042;53.150;5.898;2022-07-06T15:03:23;17.80;99.90
53146;DHT22;39042;53.150;5.898;2022-07-06T15:05:49;17.80;99.90
53146;DHT22;39042;53.150;5.898;2022-07-06T15:08:14;17.90;99.90
53146;DHT22;39042;53.150;5.898;2022-07-06T15:10:44;17.90;99.90
53146;DHT22;39042;53.150;5.898;2022-07-06T15:13:10;17.90;99.90
53146;DHT22;39042;53.150;5.898;2022-07-06T15:15:37;18.00;99.90
53146;DHT22;39042;53.150;5.898;2022-07-06T15:18:04;18.10;99.90
53146;DHT22;39042;53.150;5.898;2022-07-06T15:20:30;18.20;99.90
53146;DHT22;39042;53.150;5.898;2022-07-06T15:22:55;18.30;99.90
53146;DHT22;39042;53.150;5.898;2022-07-06T15:25:21;18.30;99.90
53146;DHT22;39042;53.150;5.898;2022-07-06T15:27:51;18.30;99.90
53146;DHT22;39042;53.150;5.898;2022-07-06T15:30:18;18.30;99.90
53146;DHT22;39042;53.150;5.898;2022-07-06T15:32:43;18.20;99.90
53146;DHT22;39042;53.150;5.898;2022-07-06T15:35:09;18.10;99.90
53146;DHT22;39042;53.150;5.898;2022-07-06T15:37:35;18.00;99.90
53146;DHT22;39042;53.150;5.898;2022-07-06T15:40:02;18.00;99.90
53146;DHT22;39042;53.150;5.898;2022-07-06T15:42:32;17.90;99.90
53146;DHT22;39042;53.150;5.898;2022-07-06T15:44:57;17.90;99.90
53146;DHT22;39042;53.150;5.898;2022-07-06T15:47:24;17.80;99.90
53146;DHT22;39042;53.150;5.898;2022-07-06T15:49:50;17.70;99.90